• Join FlightAware (Why Join?)
  • Login
  • US Flag 
12:45PM EDT


 

Airport Tracker/Info


-or-


 

Live Flight TrackerFlight Track Log ✈ N724AE ✈ 08-Apr-2013 ✈ KDFW - KCVG

Flight Track Log - Related Links

Times and Time Zones

All times are in EDT time to prevent confusion due to time zone crossing. See the N724AE flight status page for this flight to view local times or setup timezone preferences in your user account.

Time Position Orientation Groundspeed Altitude Reporting Facility
EDT Latitude Longitude Course Direction KTS MPH feet Rate Location/Type
10:33AM 32.8500 -97.0167 57° Northeast 176 203 3,500  Level Dallas / Fort Worth TRACON
10:34AM 32.7613 -96.8770 77° East  Level FlightAware Approximate
10:34AM 32.7833 -97.0000 168° South 231 266 4,900  Level Dallas / Fort Worth TRACON
10:35AM 32.8024 -96.7595 53° Northeast  Level FlightAware Approximate
10:35AM 32.7667 -96.9167 103° East 287 330 7,000  Level Dallas / Fort Worth TRACON
10:36AM 32.8696 -96.6539 52° Northeast  Level FlightAware Approximate
10:37AM 32.9388 -96.5501 52° Northeast  Level FlightAware Approximate
10:37AM 32.8047 -96.7758 72° East 323 372 10,000  Level Fort Worth Center
10:38AM 33.0005 -96.4398 57° Northeast  Level FlightAware Approximate
10:38AM 32.8583 -96.6936 52° Northeast 333 383 10,700  Level Fort Worth Center
10:39AM 32.9247 -96.5844 54° Northeast 365 420 12,100 1,380 Climbing Fort Worth Center
10:40AM 32.9844 -96.4897 53° Northeast 389 448 13,500 1,500 Climbing Fort Worth Center
10:41AM 33.0586 -96.3750 52° Northeast 394 453 15,200 1,560 Climbing Fort Worth Center
10:42AM 33.1039 -96.2728 62° Northeast 389 448 16,600 1,620 Climbing Fort Worth Center
10:43AM 33.1422 -96.1333 72° East 395 455 18,500 1,560 Climbing Fort Worth Center
10:44AM 33.1764 -96.0186 70° East 401 461 19,800 1,260 Climbing Fort Worth Center
10:45AM 33.2186 -95.8764 70° East 409 471 21,000 1,080 Climbing Fort Worth Center
10:46AM 33.2544 -95.7542 71° East 414 476 22,000 1,020 Climbing Fort Worth Center
10:47AM 33.2983 -95.5967 72° East 439 505 23,100 960 Climbing Fort Worth Center
10:48AM 33.3361 -95.4692 70° East 445 512 24,000 1,020 Climbing Fort Worth Center
10:49AM 33.3756 -95.3264 72° East 450 518 25,200 1,200 Climbing Fort Worth Center
10:50AM 33.4169 -95.1811 71° East 450 518 26,500 1,260 Climbing Fort Worth Center
10:51AM 33.4581 -95.0406 71° East 450 518 27,800 1,320 Climbing Fort Worth Center
10:52AM 33.4972 -94.9050 71° East 445 512 29,200 1,380 Climbing Fort Worth Center
10:53AM 33.5383 -94.7694 70° East 440 506 30,600 1,440 Climbing Fort Worth Center
10:54AM 33.5750 -94.6311 72° East 435 501 32,100 1,440 Climbing Fort Worth Center
10:55AM 33.6156 -94.4928 71° East 435 501 33,600 1,440 Climbing Fort Worth Center
10:56AM 33.6522 -94.3592 72° East 424 488 35,000 1,200 Climbing Fort Worth Center
10:57AM 33.6925 -94.2231 70° East 424 488 36,000 900 Climbing Fort Worth Center
10:58AM 33.7519 -94.0986 60° Northeast 424 488 36,900 540 Climbing Fort Worth Center
10:58AM 33.8003 -93.9992 60° Northeast 428 493 37,000  Climbing Memphis Center
10:59AM 33.8667 -93.8669 59° Northeast 445 512 37,000  Level Memphis Center
11:00AM 33.9331 -93.7319 59° Northeast 451 519 37,000  Level Memphis Center
11:01AM 34.0014 -93.5942 59° Northeast 464 534 37,000  Level Memphis Center
11:02AM 34.0742 -93.4442 60° Northeast 464 534 37,000  Level Memphis Center
11:03AM 34.1422 -93.3033 60° Northeast 474 545 37,000  Level Memphis Center
11:04AM 34.2103 -93.1625 60° Northeast 479 551 37,000  Level Memphis Center
11:05AM 34.2800 -93.0192 60° Northeast 479 551 37,000  Level Memphis Center
11:06AM 34.2667 -93.0291 60° Northeast  Level FlightAware Approximate
11:06AM 34.3369 -92.8925 61° Northeast 479 551 37,000  Level Memphis Center
11:07AM 34.4044 -92.7511 60° Northeast 479 551 37,000  Level Memphis Center
11:08AM 34.4803 -92.5969 59° Northeast 479 551 37,000  Level Memphis Center
11:09AM 34.5475 -92.4525 61° Northeast 479 551 37,000  Level Memphis Center
11:10AM 34.6144 -92.3128 60° Northeast 479 551 37,000  Level Memphis Center
11:11AM 34.6875 -92.1731 58° Northeast 479 551 37,000  Level Memphis Center
11:12AM 34.7767 -92.0561 47° Northeast 479 551 37,000  Level Memphis Center
11:13AM 34.8658 -91.9389 47° Northeast 474 545 37,000  Level Memphis Center
11:14AM 34.9592 -91.8192 46° Northeast 474 545 37,000  Level Memphis Center
11:15AM 35.0522 -91.6989 47° Northeast 474 545 37,000  Level Memphis Center
11:16AM 35.1453 -91.5786 47° Northeast 474 545 37,000  Level Memphis Center
11:17AM 35.2383 -91.4603 46° Northeast 474 545 37,000  Level Memphis Center
11:18AM 35.3311 -91.3419 46° Northeast 474 545 37,000  Level Memphis Center
11:19AM 35.4236 -91.2233 46° Northeast 474 545 37,000  Level Memphis Center
11:20AM 35.5161 -91.1019 47° Northeast 480 552 37,000  Level Memphis Center
11:21AM 35.6067 -90.9828 47° Northeast 480 552 37,000  Level Memphis Center
11:22AM 35.6967 -90.8606 48° Northeast 480 552 37,000  Level Memphis Center
11:23AM 35.7911 -90.7383 46° Northeast 475 547 37,000  Level Memphis Center
11:24AM 35.8789 -90.6158 48° Northeast 475 547 37,000  Level Memphis Center
11:25AM 35.9731 -90.4928 47° Northeast 475 547 37,000  Level Memphis Center
11:26AM 36.0647 -90.3672 48° Northeast 482 555 37,000  Level Memphis Center
11:27AM 36.1606 -90.2414 47° Northeast 482 555 37,000  Level Memphis Center
11:28AM 36.2522 -90.1175 47° Northeast 487 560 37,000 -180 Level Memphis Center
11:29AM 36.3436 -89.9936 47° Northeast 487 560 36,700 -540 Descending Memphis Center
11:30AM 36.4369 -89.8694 47° Northeast 487 560 36,000 -720 Descending Memphis Center
11:31AM 36.5281 -89.7450 48° Northeast 487 560 35,300 -540 Descending Memphis Center
11:32AM 36.6211 -89.6175 48° Northeast 492 566 35,000 -180 Descending Memphis Center
11:33AM 36.7142 -89.4925 47° Northeast 492 566 35,000  Level Memphis Center
11:34AM 36.8092 -89.3619 48° Northeast 492 566 35,000 -180 Level Memphis Center
11:35AM 36.8894 -89.2467 49° Northeast 492 566 34,700 -420 Descending Memphis Center
11:36AM 36.9819 -89.1181 48° Northeast 492 566 34,200 -600 Descending Memphis Center
11:37AM 37.0722 -88.9919 48° Northeast 492 566 33,600 -660 Descending Memphis Center
11:38AM 37.1625 -88.8656 48° Northeast 492 566 32,900 -720 Descending Memphis Center
11:39AM 37.2567 -88.7333 48° Northeast 492 566 32,200 -720 Descending Memphis Center
11:40AM 37.3508 -88.6036 48° Northeast 492 566 31,500 -600 Descending Memphis Center
11:41AM 37.4425 -88.4708 49° Northeast 492 566 31,000 -300 Descending Memphis Center
11:42AM 37.5339 -88.3328 50° Northeast 503 579 31,000  Level Indianapolis Center
11:43AM 37.6247 -88.2003 49° Northeast 498 573 31,000  Level Indianapolis Center
11:44AM 37.7211 -88.0622 49° Northeast 499 574 31,000  Level Indianapolis Center
11:45AM 37.7811 -87.9108 63° Northeast 502 578 31,000  Level Indianapolis Center
11:46AM 37.8394 -87.7489 65° Northeast 505 581 31,000 -60 Level Indianapolis Center
11:47AM 37.8992 -87.5875 65° Northeast 505 581 30,900 -360 Descending Indianapolis Center
11:49AM 37.9586 -87.4233 65° Northeast 510 587 30,300 -660 Descending Indianapolis Center
11:50AM 38.0186 -87.2581 65° Northeast 517 595 29,600 -840 Descending Indianapolis Center
11:51AM 38.0894 -87.0622 65° Northeast 513 590 28,600 -1,080 Descending Indianapolis Center
11:52AM 38.1458 -86.9050 65° Northeast 501 577 27,400 -1,740 Descending Indianapolis Center
11:53AM 38.1994 -86.7539 66° East 478 550 25,100 -2,400 Descending Indianapolis Center
11:54AM 38.2519 -86.6081 65° Northeast 459 528 22,600 -2,280 Descending Indianapolis Center
11:55AM 38.3025 -86.4658 66° East 444 511 20,400 -1,860 Descending Indianapolis Center
11:56AM 38.3500 -86.3292 66° East 425 489 18,800 -1,620 Descending Indianapolis Center
11:57AM 38.4061 -86.1672 66° East 417 480 17,200 -1,380 Descending Indianapolis Center
11:58AM 38.4539 -86.0333 65° Northeast 415 478 16,000 -1,200 Descending Indianapolis Center
11:59AM 38.4969 -85.9053 67° East 397 457 14,800 -1,200 Descending Indianapolis Center
12:00PM 38.5425 -85.7717 66° East 409 471 13,600 -1,200 Descending Indianapolis Center
12:01PM 38.5906 -85.6347 66° East 421 484 12,400 -1,200 Descending Indianapolis Center
12:02PM 38.6500 -85.5069 59° Northeast 413 475 11,200 -720 Descending Indianapolis Center
12:03PM 38.7061 -85.3808 60° Northeast 406 467 11,000 -120 Descending Indianapolis Center
12:04PM 38.7606 -85.2542 61° Northeast 405 466 11,000  Level Indianapolis Center
12:05PM 38.8167 -85.1231 61° Northeast 415 478 11,000 -300 Level Indianapolis Center
12:06PM 38.8811 -84.9756 61° Northeast 403 464 10,400 -720 Descending Indianapolis Center
12:07PM 38.9272 -84.8694 61° Northeast 340 391 9,600 -780 Descending Indianapolis Center
12:08PM 38.9667 -84.7833 59° Northeast 326 375 9,000 -720 Descending Cincinnati TRACON
12:09PM 39.0500 -84.7833 360° North 285 328 8,400 -900 Descending Cincinnati TRACON
12:10PM 39.1333 -84.7833 360° North 252 290 7,200 -1,620 Descending Cincinnati TRACON
12:11PM 39.2000 -84.7500 21° North 276 318 5,000 -1,860 Descending Cincinnati TRACON
12:12PM 39.1833 -84.6667 104° East 212 244 3,200 -1,680 Descending Cincinnati TRACON